createdAt,value
2019-01-30T00:02:22.983Z,46.50
2019-01-30T00:04:54.802Z,47.10
2019-01-30T00:07:26.675Z,46.60
2019-01-30T00:09:58.675Z,46.60
2019-01-30T00:12:30.891Z,46.40
2019-01-30T00:15:02.755Z,46.60
2019-01-30T00:17:34.583Z,46.70
2019-01-30T00:20:07.615Z,46.60
2019-01-30T00:22:39.549Z,46.50
2019-01-30T00:25:11.599Z,46.50
2019-01-30T00:27:43.641Z,46.50
2019-01-30T00:30:16.956Z,46.50
2019-01-30T00:32:48.962Z,46.40
2019-01-30T00:35:21.100Z,46.40
2019-01-30T00:37:53.139Z,46.50
2019-01-30T00:40:25.386Z,46.50
2019-01-30T00:42:57.357Z,46.40
2019-01-30T00:45:29.198Z,46.40
2019-01-30T00:48:01.029Z,46.50
2019-01-30T00:50:32.984Z,46.60
2019-01-30T00:53:04.945Z,46.40
2019-01-30T00:55:36.776Z,46.50
2019-01-30T00:58:08.799Z,47.20
2019-01-30T01:00:41.021Z,46.60
2019-01-30T01:03:12.879Z,46.70
2019-01-30T01:05:44.967Z,46.60
2019-01-30T01:08:17.011Z,46.70
2019-01-30T01:10:48.861Z,46.70
2019-01-30T01:13:20.698Z,46.70
2019-01-30T01:15:52.660Z,46.80
2019-01-30T01:18:24.701Z,46.80
2019-01-30T01:20:56.668Z,46.80
2019-01-30T01:23:28.528Z,46.80
2019-01-30T01:26:00.383Z,47.50
2019-01-30T01:28:32.275Z,46.80
2019-01-30T01:31:04.325Z,47.00
2019-01-30T01:33:36.163Z,46.90
2019-01-30T01:36:08.119Z,46.90
2019-01-30T01:38:40.002Z,46.90
2019-01-30T01:41:11.996Z,46.90
2019-01-30T01:43:43.962Z,46.90
2019-01-30T01:46:16.285Z,46.90
2019-01-30T01:48:49.483Z,47.00
2019-01-30T01:51:21.582Z,47.00
2019-01-30T01:53:53.755Z,46.90
2019-01-30T01:56:25.923Z,47.00
2019-01-30T01:58:57.938Z,47.10
2019-01-30T02:01:29.784Z,47.10
2019-01-30T02:04:01.678Z,47.10
2019-01-30T02:06:33.549Z,47.10
2019-01-30T02:09:07.839Z,47.20
2019-01-30T02:11:39.689Z,47.20
2019-01-30T02:14:11.519Z,47.20
2019-01-30T02:16:43.334Z,47.30
2019-01-30T02:19:15.204Z,47.30
2019-01-30T02:21:47.282Z,47.30
2019-01-30T02:24:19.277Z,47.40
2019-01-30T02:26:51.104Z,47.40
2019-01-30T02:29:22.924Z,48.00
2019-01-30T02:31:54.933Z,47.60
2019-01-30T02:34:27.184Z,47.60
2019-01-30T02:36:59.439Z,47.60
2019-01-30T02:39:31.405Z,47.70
2019-01-30T02:42:03.329Z,47.70
2019-01-30T02:44:35.118Z,47.70
2019-01-30T02:47:07.249Z,47.80
2019-01-30T02:49:39.082Z,47.70
2019-01-30T02:52:10.986Z,47.90
2019-01-30T02:54:43.217Z,47.70
2019-01-30T02:57:15.371Z,47.70
2019-01-30T02:59:47.170Z,47.70
2019-01-30T03:02:22.484Z,47.80
2019-01-30T03:04:54.715Z,48.40
2019-01-30T03:07:26.523Z,47.80
2019-01-30T03:09:58.348Z,47.80
2019-01-30T03:12:30.325Z,47.80
2019-01-30T03:15:02.306Z,47.70
2019-01-30T03:17:34.598Z,47.80
2019-01-30T03:20:09.004Z,47.70
2019-01-30T03:22:40.828Z,47.90
2019-01-30T03:25:13.827Z,47.20
2019-01-30T03:27:45.600Z,47.80
2019-01-30T03:30:21.760Z,47.90
2019-01-30T03:32:53.710Z,47.90
2019-01-30T03:35:25.861Z,47.90
2019-01-30T03:37:57.868Z,47.90
2019-01-30T03:40:29.962Z,48.00
2019-01-30T03:43:02.018Z,48.10
2019-01-30T03:45:34.067Z,48.20
2019-01-30T03:48:05.933Z,48.20
2019-01-30T03:50:37.745Z,48.30
2019-01-30T03:53:09.583Z,48.40
2019-01-30T03:55:41.428Z,48.50
2019-01-30T03:58:13.262Z,48.60
2019-01-30T04:00:45.037Z,48.60
2019-01-30T04:03:17.017Z,49.10
2019-01-30T04:05:49.095Z,48.70
2019-01-30T04:08:20.905Z,48.80
2019-01-30T04:10:52.696Z,48.80
2019-01-30T04:13:24.639Z,48.80
2019-01-30T04:15:56.568Z,48.80
2019-01-30T04:18:28.447Z,48.90
2019-01-30T04:21:00.380Z,49.00
2019-01-30T04:23:32.195Z,49.00
2019-01-30T04:26:04.029Z,48.90
2019-01-30T04:28:35.872Z,48.90
2019-01-30T04:31:08.607Z,49.30
2019-01-30T04:33:40.440Z,49.00
2019-01-30T04:36:12.297Z,49.00
2019-01-30T04:38:44.341Z,49.00
2019-01-30T04:41:16.196Z,49.00
2019-01-30T04:43:48.080Z,49.00
2019-01-30T04:46:19.931Z,49.00
2019-01-30T04:48:51.921Z,48.00
2019-01-30T04:51:23.740Z,49.00
2019-01-30T04:53:55.588Z,49.00
2019-01-30T04:56:27.418Z,49.00
2019-01-30T04:58:59.453Z,49.00
2019-01-30T05:01:31.420Z,49.00
2019-01-30T05:04:03.211Z,49.00
2019-01-30T05:06:35.000Z,49.00
2019-01-30T05:09:11.314Z,49.00
2019-01-30T05:11:43.239Z,49.10
2019-01-30T05:14:15.069Z,49.00
2019-01-30T05:16:46.902Z,49.10
2019-01-30T05:19:18.710Z,48.70
2019-01-30T05:21:50.808Z,49.10
2019-01-30T05:24:22.736Z,49.10
2019-01-30T05:26:54.843Z,49.10
2019-01-30T05:29:26.747Z,49.20
2019-01-30T05:32:01.416Z,49.10
2019-01-30T05:34:32.503Z,49.10
2019-01-30T05:37:04.600Z,49.10
2019-01-30T05:39:36.555Z,49.10
2019-01-30T05:42:08.387Z,49.10
2019-01-30T05:44:40.446Z,49.20
2019-01-30T05:47:12.355Z,49.00
2019-01-30T05:49:44.189Z,49.10
2019-01-30T05:52:16.109Z,49.10
2019-01-30T05:54:47.910Z,49.10
2019-01-30T05:57:19.953Z,49.00
2019-01-30T05:59:51.753Z,49.20
2019-01-30T06:02:23.701Z,49.10
2019-01-30T06:04:56.662Z,49.10
2019-01-30T06:07:28.430Z,49.20
2019-01-30T06:10:00.328Z,49.20
2019-01-30T06:12:32.154Z,49.20
2019-01-30T06:15:04.114Z,49.20
2019-01-30T06:17:36.128Z,49.20
2019-01-30T06:20:12.064Z,49.10
2019-01-30T06:22:43.982Z,49.20
2019-01-30T06:25:15.761Z,49.10
2019-01-30T06:27:47.702Z,49.80
2019-01-30T06:30:20.625Z,49.20
2019-01-30T06:32:52.774Z,49.20
2019-01-30T06:35:24.798Z,49.20
2019-01-30T06:37:56.635Z,49.10
2019-01-30T06:40:32.244Z,49.20
2019-01-30T06:43:03.972Z,49.80
2019-01-30T06:45:35.882Z,49.10
2019-01-30T06:48:08.122Z,49.10
2019-01-30T06:50:41.146Z,48.90
2019-01-30T06:53:12.922Z,49.10
2019-01-30T06:55:45.170Z,49.10
2019-01-30T06:58:17.277Z,49.00
2019-01-30T07:00:52.745Z,49.00
2019-01-30T07:03:23.965Z,49.00
2019-01-30T07:05:55.791Z,49.00
2019-01-30T07:08:27.773Z,48.90
2019-01-30T07:11:10.484Z,48.80
2019-01-30T07:13:34.649Z,48.80
2019-01-30T07:16:06.792Z,48.90
2019-01-30T07:18:38.622Z,48.80
2019-01-30T07:21:10.607Z,48.90
2019-01-30T07:23:42.507Z,49.00
2019-01-30T07:26:14.333Z,48.90
2019-01-30T07:28:46.104Z,49.00
2019-01-30T07:31:19.291Z,48.90
2019-01-30T07:33:51.400Z,49.00
2019-01-30T07:36:23.324Z,49.00
2019-01-30T07:38:58.443Z,49.00
2019-01-30T07:41:30.332Z,49.00
2019-01-30T07:44:02.187Z,49.00
2019-01-30T07:46:34.021Z,49.00
2019-01-30T07:49:06.007Z,49.00
2019-01-30T07:51:37.881Z,49.10
2019-01-30T07:54:09.722Z,49.00
2019-01-30T07:56:41.673Z,49.00
2019-01-30T07:59:13.625Z,49.10
2019-01-30T08:01:45.877Z,49.10
2019-01-30T08:04:18.109Z,49.10
2019-01-30T08:06:50.172Z,49.00
2019-01-30T08:09:22.098Z,48.90
2019-01-30T08:11:53.953Z,49.00
2019-01-30T08:14:25.779Z,49.10
2019-01-30T08:16:57.681Z,49.00
2019-01-30T08:19:29.853Z,49.00
2019-01-30T08:22:01.844Z,49.00
2019-01-30T08:24:33.686Z,49.00
2019-01-30T08:27:13.329Z,49.00
2019-01-30T08:29:48.246Z,49.10
2019-01-30T08:32:22.325Z,49.00
2019-01-30T08:35:00.851Z,49.10
2019-01-30T08:37:41.466Z,49.40
2019-01-30T08:40:14.818Z,49.40
2019-01-30T08:42:52.276Z,49.30
2019-01-30T08:45:30.277Z,49.20
2019-01-30T08:48:04.877Z,49.00
2019-01-30T08:50:40.492Z,49.00
2019-01-30T08:53:16.867Z,49.00
2019-01-30T08:56:00.413Z,48.90
2019-01-30T08:58:32.315Z,49.00
2019-01-30T09:01:16.918Z,49.10
2019-01-30T09:04:07.796Z,49.20
2019-01-30T09:06:39.676Z,49.40
2019-01-30T09:09:14.157Z,49.40
2019-01-30T09:11:48.898Z,49.40
2019-01-30T09:14:20.782Z,49.60
2019-01-30T09:16:55.564Z,49.70
2019-01-30T09:19:31.184Z,49.80
2019-01-30T09:22:13.155Z,49.90
2019-01-30T09:24:48.844Z,50.00
2019-01-30T09:27:24.564Z,51.20
2019-01-30T09:30:03.638Z,51.00
2019-01-30T09:32:37.605Z,50.70
2019-01-30T09:35:12.048Z,50.70
2019-01-30T09:37:45.041Z,50.60
2019-01-30T09:40:23.712Z,50.70
2019-01-30T09:42:58.804Z,50.60
2019-01-30T09:45:37.436Z,50.70
2019-01-30T09:48:10.814Z,50.80
2019-01-30T09:50:48.792Z,50.50
2019-01-30T09:53:20.739Z,50.80
2019-01-30T09:55:52.537Z,51.00
2019-01-30T09:58:24.522Z,51.00
2019-01-30T10:00:56.653Z,51.00
2019-01-30T10:03:35.997Z,51.10
2019-01-30T10:06:03.947Z,52.60
2019-01-30T10:08:36.053Z,52.20
2019-01-30T10:11:08.094Z,52.00
2019-01-30T10:13:39.942Z,51.90
2019-01-30T10:16:11.815Z,51.80
2019-01-30T10:18:43.729Z,52.30
2019-01-30T10:21:15.680Z,51.70
2019-01-30T10:23:47.542Z,51.90
2019-01-30T10:26:19.467Z,51.60
2019-01-30T10:28:51.256Z,51.50
2019-01-30T10:31:24.870Z,51.60
2019-01-30T10:33:56.772Z,51.50
2019-01-30T10:36:28.767Z,51.50
2019-01-30T10:39:00.969Z,51.50
2019-01-30T10:41:33.063Z,51.40
2019-01-30T10:44:05.306Z,51.30
2019-01-30T10:46:37.302Z,51.30
2019-01-30T10:49:09.558Z,51.20
2019-01-30T10:51:42.982Z,51.50
2019-01-30T10:54:14.949Z,51.70
2019-01-30T10:56:46.804Z,51.70
2019-01-30T10:59:20.029Z,51.60
2019-01-30T11:01:51.954Z,51.60
2019-01-30T11:04:23.871Z,51.50
2019-01-30T11:06:55.704Z,51.50
2019-01-30T11:09:27.679Z,51.50
2019-01-30T11:11:59.685Z,51.50
2019-01-30T11:14:31.581Z,51.60
2019-01-30T11:17:03.399Z,51.60
2019-01-30T11:19:35.367Z,51.50
2019-01-30T11:22:07.710Z,51.50
2019-01-30T11:25:02.170Z,52.10
2019-01-30T11:27:36.464Z,51.30
2019-01-30T11:30:13.070Z,51.70
2019-01-30T11:32:50.038Z,51.80
2019-01-30T11:35:25.129Z,51.60
2019-01-30T11:37:57.070Z,51.70
2019-01-30T11:40:29.253Z,51.60
2019-01-30T11:43:01.666Z,51.50
2019-01-30T11:45:37.516Z,52.00
2019-01-30T11:48:10.629Z,52.60
2019-01-30T11:50:43.701Z,52.00
2019-01-30T11:53:15.624Z,52.00
2019-01-30T11:55:47.604Z,51.90
2019-01-30T11:58:19.466Z,52.00
2019-01-30T12:00:59.865Z,51.90
2019-01-30T12:03:32.295Z,52.00
2019-01-30T12:06:04.579Z,53.20
2019-01-30T12:08:36.659Z,52.90
2019-01-30T12:11:09.024Z,52.90
2019-01-30T12:13:41.013Z,53.70
2019-01-30T12:16:13.314Z,53.70
2019-01-30T12:18:45.363Z,53.10
2019-01-30T12:21:17.221Z,52.70
2019-01-30T12:23:49.567Z,52.50
2019-01-30T12:26:21.445Z,52.30
2019-01-30T12:28:53.255Z,52.30
2019-01-30T12:31:25.141Z,52.30
2019-01-30T12:33:59.184Z,52.30
2019-01-30T12:36:31.051Z,52.20
2019-01-30T12:39:04.548Z,52.20
2019-01-30T12:41:36.751Z,52.10
2019-01-30T12:44:10.009Z,52.20
2019-01-30T12:46:41.952Z,52.10
2019-01-30T12:49:14.030Z,52.00
2019-01-30T12:51:46.162Z,52.00
2019-01-30T12:54:18.133Z,52.00
2019-01-30T12:56:51.324Z,52.00
2019-01-30T12:59:23.296Z,52.10
2019-01-30T13:01:55.173Z,52.10
2019-01-30T13:04:38.440Z,52.10
2019-01-30T13:07:09.279Z,52.10
2019-01-30T13:09:45.525Z,52.30
2019-01-30T13:12:21.141Z,52.30
2019-01-30T13:14:53.283Z,52.30
2019-01-30T13:17:28.658Z,52.20
2019-01-30T13:20:03.442Z,52.10
2019-01-30T13:22:37.241Z,52.20
2019-01-30T13:25:09.715Z,52.10
2019-01-30T13:27:41.897Z,52.10
2019-01-30T13:30:27.029Z,52.10
2019-01-30T13:33:02.380Z,52.20
2019-01-30T13:35:34.367Z,52.10
2019-01-30T13:38:06.856Z,52.30
2019-01-30T13:40:42.136Z,52.30
2019-01-30T13:43:14.053Z,52.20
2019-01-30T13:45:46.098Z,52.20
2019-01-30T13:48:22.091Z,52.20
2019-01-30T13:51:01.415Z,52.30
2019-01-30T13:53:33.662Z,52.30
2019-01-30T13:56:10.588Z,52.30
2019-01-30T13:58:42.827Z,52.40
2019-01-30T14:01:17.548Z,52.40
2019-01-30T14:03:48.506Z,52.40
2019-01-30T14:06:20.389Z,52.40
2019-01-30T14:08:52.441Z,52.50
2019-01-30T14:11:24.693Z,52.50
2019-01-30T14:13:56.817Z,52.50
2019-01-30T14:16:28.915Z,52.40
2019-01-30T14:19:02.401Z,52.40
2019-01-30T14:21:36.680Z,52.40
2019-01-30T14:24:11.097Z,52.50
2019-01-30T14:26:44.747Z,52.50
2019-01-30T14:32:18.754Z,52.40
2019-01-30T14:34:55.488Z,52.40
2019-01-30T14:37:29.632Z,52.50
2019-01-30T14:40:01.578Z,52.90
2019-01-30T14:42:34.543Z,52.60
2019-01-30T14:45:09.875Z,52.60
2019-01-30T14:47:45.005Z,52.70
2019-01-30T14:50:21.978Z,52.80
2019-01-30T14:52:55.373Z,52.80
2019-01-30T14:55:27.248Z,52.90
2019-01-30T14:58:00.510Z,52.80
2019-01-30T15:00:36.021Z,52.80
2019-01-30T15:03:15.557Z,52.90
2019-01-30T15:05:49.787Z,52.90
2019-01-30T15:08:25.774Z,53.00
2019-01-30T15:11:00.325Z,53.00
2019-01-30T15:13:33.234Z,53.10
2019-01-30T15:16:05.194Z,53.20
2019-01-30T15:18:37.427Z,53.10
2019-01-30T15:21:09.373Z,53.10
2019-01-30T15:23:41.247Z,53.20
2019-01-30T15:26:13.233Z,53.30
2019-01-30T15:28:45.138Z,53.30
2019-01-30T15:31:17.095Z,54.00
2019-01-30T15:33:49.308Z,53.40
2019-01-30T15:36:21.230Z,53.60
2019-01-30T15:38:54.203Z,53.50
2019-01-30T15:41:26.244Z,53.60
2019-01-30T15:43:58.080Z,53.50
2019-01-30T15:46:30.102Z,53.70
2019-01-30T15:49:02.046Z,53.80
2019-01-30T15:51:34.013Z,53.80
2019-01-30T15:54:06.691Z,54.30
2019-01-30T15:56:38.706Z,53.90
2019-01-30T15:59:12.559Z,53.90
2019-01-30T16:01:46.763Z,53.90
2019-01-30T16:04:18.635Z,53.90
2019-01-30T16:06:50.816Z,53.80
2019-01-30T16:09:23.048Z,53.90
2019-01-30T16:11:55.112Z,53.80
2019-01-30T16:14:27.081Z,53.80
2019-01-30T16:16:59.392Z,53.80
2019-01-30T16:19:31.447Z,54.00
2019-01-30T16:22:03.446Z,54.20
2019-01-30T16:24:35.419Z,54.60
2019-01-30T16:27:07.407Z,54.10
2019-01-30T16:29:39.401Z,54.20
2019-01-30T16:32:11.356Z,54.10
2019-01-30T16:34:43.566Z,54.20
2019-01-30T16:37:15.512Z,54.10
2019-01-30T16:39:47.665Z,54.20
2019-01-30T16:42:19.852Z,54.30
2019-01-30T16:44:51.835Z,54.20
2019-01-30T16:47:23.808Z,54.80
2019-01-30T16:49:55.801Z,54.20
2019-01-30T16:52:27.695Z,54.20
2019-01-30T16:54:59.831Z,54.20
2019-01-30T16:57:32.024Z,54.30
2019-01-30T17:00:04.841Z,54.20
2019-01-30T17:02:36.907Z,54.60
2019-01-30T17:05:12.377Z,54.30
2019-01-30T17:07:44.362Z,54.20
2019-01-30T17:10:16.939Z,54.30
2019-01-30T17:12:49.239Z,54.30
2019-01-30T17:15:24.376Z,54.30
2019-01-30T17:17:56.481Z,54.40
2019-01-30T17:20:31.949Z,54.50
2019-01-30T17:23:04.068Z,54.30
2019-01-30T17:25:36.561Z,54.40
2019-01-30T17:28:08.576Z,54.40
2019-01-30T17:31:04.568Z,54.50
2019-01-30T17:33:36.609Z,54.60
2019-01-30T17:36:18.292Z,54.50
2019-01-30T17:38:42.159Z,54.70
2019-01-30T17:41:14.299Z,54.70
2019-01-30T17:43:48.274Z,54.20
2019-01-30T17:46:21.423Z,54.70
2019-01-30T17:48:55.183Z,54.80
2019-01-30T17:51:28.682Z,54.60
2019-01-30T17:54:00.703Z,54.70
2019-01-30T17:56:34.501Z,54.60
2019-01-30T17:59:06.763Z,54.70
2019-01-30T18:01:41.662Z,54.80
2019-01-30T18:04:17.286Z,54.90
2019-01-30T18:06:50.930Z,55.10
2019-01-30T18:09:27.528Z,55.00
2019-01-30T18:11:59.820Z,55.00
2019-01-30T18:14:33.314Z,55.00
2019-01-30T18:17:05.234Z,55.20
2019-01-30T18:19:41.561Z,55.00
2019-01-30T18:22:15.462Z,55.00
2019-01-30T18:24:49.344Z,55.10
2019-01-30T18:27:21.539Z,55.00
2019-01-30T18:29:58.042Z,54.90
2019-01-30T18:32:30.188Z,55.00
2019-01-30T18:35:02.149Z,55.00
2019-01-30T18:37:34.531Z,55.20
2019-01-30T18:40:11.868Z,55.20
2019-01-30T18:42:44.343Z,55.20
2019-01-30T18:45:26.984Z,55.30
2019-01-30T18:47:59.150Z,55.40
2019-01-30T18:50:31.240Z,55.40
2019-01-30T18:53:04.922Z,55.40
2019-01-30T18:55:37.311Z,55.50
2019-01-30T18:58:09.423Z,55.50
2019-01-30T19:00:44.349Z,55.50
2019-01-30T19:03:21.639Z,55.60
2019-01-30T19:05:53.503Z,55.60
2019-01-30T19:08:25.587Z,55.60
2019-01-30T19:10:57.471Z,55.50
2019-01-30T19:13:29.598Z,55.60
2019-01-30T19:16:01.593Z,55.70
2019-01-30T19:18:34.018Z,55.60
2019-01-30T19:21:06.172Z,55.80
2019-01-30T19:23:38.570Z,55.80
2019-01-30T19:26:11.105Z,55.90
2019-01-30T19:28:43.225Z,55.70
2019-01-30T19:31:15.317Z,56.50
2019-01-30T19:33:47.432Z,55.70
2019-01-30T19:36:19.565Z,55.80
2019-01-30T19:38:51.704Z,55.80
2019-01-30T19:41:23.782Z,55.90
2019-01-30T19:43:55.710Z,55.90
2019-01-30T19:46:28.161Z,55.70
2019-01-30T19:49:01.662Z,55.80
2019-01-30T19:51:33.618Z,55.90
2019-01-30T19:54:05.764Z,55.80
2019-01-30T19:56:37.926Z,55.80
2019-01-30T19:59:17.399Z,55.80
2019-01-30T20:01:44.867Z,55.90
2019-01-30T20:04:17.016Z,55.90
2019-01-30T20:06:49.176Z,56.00
2019-01-30T20:09:23.027Z,56.60
2019-01-30T20:11:54.960Z,55.90
2019-01-30T20:14:26.815Z,55.90
2019-01-30T20:16:59.336Z,55.90
2019-01-30T20:19:31.519Z,55.90
2019-01-30T20:22:03.411Z,55.80
2019-01-30T20:24:35.387Z,55.90
2019-01-30T20:27:07.527Z,56.00
2019-01-30T20:29:39.501Z,56.00
2019-01-30T20:32:11.535Z,56.00
2019-01-30T20:34:43.688Z,56.00
2019-01-30T20:37:25.857Z,55.90
2019-01-30T20:39:51.261Z,55.80
2019-01-30T20:42:23.408Z,55.90
2019-01-30T20:44:55.337Z,55.90
2019-01-30T20:47:27.425Z,55.90
2019-01-30T20:49:59.650Z,56.00
2019-01-30T20:52:31.516Z,56.00
2019-01-30T20:55:04.661Z,56.00
2019-01-30T20:57:36.969Z,56.10
2019-01-30T21:00:15.123Z,56.10
2019-01-30T21:02:47.358Z,56.70
2019-01-30T21:05:19.537Z,56.10
2019-01-30T21:07:51.426Z,56.20
2019-01-30T21:10:30.020Z,56.20
2019-01-30T21:13:02.436Z,56.10
2019-01-30T21:15:34.358Z,56.20
2019-01-30T21:18:06.524Z,56.20
2019-01-30T21:20:38.578Z,56.30
2019-01-30T21:23:10.546Z,56.40
2019-01-30T21:25:42.715Z,56.20
2019-01-30T21:28:15.110Z,56.60
2019-01-30T21:30:47.309Z,56.20
2019-01-30T21:33:19.305Z,56.20
2019-01-30T21:35:51.485Z,56.20
2019-01-30T21:38:23.374Z,56.20
2019-01-30T21:40:55.373Z,55.70
2019-01-30T21:43:27.620Z,56.20
2019-01-30T21:45:59.639Z,56.10
2019-01-30T21:48:31.557Z,56.00
2019-01-30T21:51:03.541Z,56.20
2019-01-30T21:53:35.688Z,56.10
2019-01-30T21:56:09.838Z,56.20
2019-01-30T21:58:41.345Z,56.30
2019-01-30T22:01:13.502Z,56.30
2019-01-30T22:03:45.692Z,56.50
2019-01-30T22:06:17.838Z,56.50
2019-01-30T22:08:49.940Z,56.50
2019-01-30T22:11:22.131Z,56.60
2019-01-30T22:13:54.031Z,56.50
2019-01-30T22:16:25.875Z,56.60
2019-01-30T22:18:57.747Z,56.70
2019-01-30T22:21:29.558Z,56.70
2019-01-30T22:24:05.593Z,56.90
2019-01-30T22:26:35.054Z,56.90
2019-01-30T22:29:07.251Z,56.90
2019-01-30T22:31:39.508Z,56.80
2019-01-30T22:34:13.338Z,56.90
2019-01-30T22:36:44.946Z,56.80
2019-01-30T22:39:17.433Z,56.60
2019-01-30T22:41:49.639Z,56.60
2019-01-30T22:44:21.671Z,56.90
2019-01-30T22:46:53.561Z,56.70
2019-01-30T22:49:25.554Z,56.80
2019-01-30T22:51:57.505Z,56.80
2019-01-30T22:54:29.704Z,56.70
2019-01-30T22:57:01.595Z,56.70
2019-01-30T22:59:33.639Z,56.70
2019-01-30T23:02:12.122Z,56.70
2019-01-30T23:05:18.215Z,56.60
2019-01-30T23:08:24.683Z,56.50
2019-01-30T23:11:38.063Z,57.10
2019-01-30T23:14:29.883Z,56.40
2019-01-30T23:18:16.003Z,56.30
2019-01-30T23:21:03.731Z,56.40
2019-01-30T23:24:30.806Z,56.40
2019-01-30T23:27:34.356Z,56.30
2019-01-30T23:30:50.658Z,56.30
2019-01-30T23:34:33.903Z,56.30
2019-01-30T23:37:33.901Z,56.30
2019-01-30T23:40:51.912Z,56.60
2019-01-30T23:44:01.703Z,56.20
2019-01-30T23:47:23.332Z,56.20
2019-01-30T23:50:44.372Z,56.30
2019-01-30T23:54:10.552Z,56.30
2019-01-30T23:57:36.834Z,56.20
